sensor_id;sensor_type;location;lat;lon;timestamp;P1;durP1;ratioP1;P2;durP2;ratioP2
47764;SDS011;33529;49.242;8.670;2022-08-19T00:02:01;18.00;;;14.70;;
47764;SDS011;33529;49.242;8.670;2022-08-19T00:04:34;16.35;;;14.52;;
47764;SDS011;33529;49.242;8.670;2022-08-19T00:07:03;16.27;;;14.48;;
47764;SDS011;33529;49.242;8.670;2022-08-19T00:09:31;16.38;;;14.02;;
47764;SDS011;33529;49.242;8.670;2022-08-19T00:11:59;16.38;;;14.75;;
47764;SDS011;33529;49.242;8.670;2022-08-19T00:14:26;17.25;;;14.82;;
47764;SDS011;33529;49.242;8.670;2022-08-19T00:16:58;17.00;;;15.13;;
47764;SDS011;33529;49.242;8.670;2022-08-19T00:19:25;17.10;;;15.10;;
47764;SDS011;33529;49.242;8.670;2022-08-19T00:21:52;19.05;;;16.58;;
47764;SDS011;33529;49.242;8.670;2022-08-19T00:24:19;17.63;;;15.77;;
47764;SDS011;33529;49.242;8.670;2022-08-19T00:26:46;17.98;;;14.98;;
47764;SDS011;33529;49.242;8.670;2022-08-19T00:29:14;18.23;;;15.98;;
47764;SDS011;33529;49.242;8.670;2022-08-19T00:31:44;17.63;;;15.90;;
47764;SDS011;33529;49.242;8.670;2022-08-19T00:34:12;21.13;;;18.20;;
47764;SDS011;33529;49.242;8.670;2022-08-19T00:36:41;17.85;;;15.82;;
47764;SDS011;33529;49.242;8.670;2022-08-19T00:39:08;20.17;;;16.25;;
47764;SDS011;33529;49.242;8.670;2022-08-19T00:41:36;17.77;;;15.98;;
47764;SDS011;33529;49.242;8.670;2022-08-19T00:44:05;17.55;;;15.82;;
47764;SDS011;33529;49.242;8.670;2022-08-19T00:46:38;19.67;;;16.40;;
47764;SDS011;33529;49.242;8.670;2022-08-19T00:49:09;21.70;;;15.73;;
47764;SDS011;33529;49.242;8.670;2022-08-19T00:51:41;16.00;;;13.85;;
47764;SDS011;33529;49.242;8.670;2022-08-19T00:54:10;16.00;;;14.32;;
47764;SDS011;33529;49.242;8.670;2022-08-19T00:56:38;18.42;;;15.73;;
47764;SDS011;33529;49.242;8.670;2022-08-19T00:59:06;19.88;;;16.33;;
47764;SDS011;33529;49.242;8.670;2022-08-19T01:01:38;17.23;;;15.43;;
47764;SDS011;33529;49.242;8.670;2022-08-19T01:04:08;17.27;;;15.45;;
47764;SDS011;33529;49.242;8.670;2022-08-19T01:06:35;17.45;;;15.65;;
47764;SDS011;33529;49.242;8.670;2022-08-19T01:09:04;19.15;;;17.17;;
47764;SDS011;33529;49.242;8.670;2022-08-19T01:11:31;16.60;;;14.93;;
47764;SDS011;33529;49.242;8.670;2022-08-19T01:14:01;17.50;;;15.60;;
47764;SDS011;33529;49.242;8.670;2022-08-19T01:16:29;19.58;;;16.48;;
47764;SDS011;33529;49.242;8.670;2022-08-19T01:18:58;17.75;;;15.73;;
47764;SDS011;33529;49.242;8.670;2022-08-19T01:21:33;19.38;;;17.25;;
47764;SDS011;33529;49.242;8.670;2022-08-19T01:24:06;19.33;;;17.23;;
47764;SDS011;33529;49.242;8.670;2022-08-19T01:26:37;19.10;;;16.23;;
47764;SDS011;33529;49.242;8.670;2022-08-19T01:29:10;19.10;;;17.08;;
47764;SDS011;33529;49.242;8.670;2022-08-19T01:31:38;19.90;;;17.38;;
47764;SDS011;33529;49.242;8.670;2022-08-19T01:34:06;17.48;;;15.68;;
47764;SDS011;33529;49.242;8.670;2022-08-19T01:36:36;17.88;;;16.08;;
47764;SDS011;33529;49.242;8.670;2022-08-19T01:39:11;18.80;;;16.85;;
47764;SDS011;33529;49.242;8.670;2022-08-19T01:41:40;19.77;;;17.77;;
47764;SDS011;33529;49.242;8.670;2022-08-19T01:44:07;22.90;;;18.88;;
47764;SDS011;33529;49.242;8.670;2022-08-19T01:46:44;18.95;;;16.98;;
47764;SDS011;33529;49.242;8.670;2022-08-19T01:49:13;19.23;;;17.10;;
47764;SDS011;33529;49.242;8.670;2022-08-19T01:51:42;18.30;;;16.42;;
47764;SDS011;33529;49.242;8.670;2022-08-19T01:54:09;19.70;;;17.55;;
47764;SDS011;33529;49.242;8.670;2022-08-19T01:56:55;19.45;;;17.55;;
47764;SDS011;33529;49.242;8.670;2022-08-19T01:59:27;19.17;;;16.92;;
47764;SDS011;33529;49.242;8.670;2022-08-19T02:01:54;20.45;;;16.48;;
47764;SDS011;33529;49.242;8.670;2022-08-19T02:04:21;18.95;;;16.85;;
47764;SDS011;33529;49.242;8.670;2022-08-19T02:06:50;17.42;;;15.65;;
47764;SDS011;33529;49.242;8.670;2022-08-19T02:09:16;19.88;;;17.77;;
47764;SDS011;33529;49.242;8.670;2022-08-19T02:11:43;19.77;;;17.70;;
47764;SDS011;33529;49.242;8.670;2022-08-19T02:14:10;23.27;;;20.70;;
47764;SDS011;33529;49.242;8.670;2022-08-19T02:16:37;21.45;;;19.15;;
47764;SDS011;33529;49.242;8.670;2022-08-19T02:19:04;20.75;;;18.23;;
47764;SDS011;33529;49.242;8.670;2022-08-19T02:21:32;22.90;;;20.50;;
47764;SDS011;33529;49.242;8.670;2022-08-19T02:24:00;20.67;;;18.60;;
47764;SDS011;33529;49.242;8.670;2022-08-19T02:26:26;21.45;;;18.63;;
47764;SDS011;33529;49.242;8.670;2022-08-19T02:28:54;21.17;;;19.02;;
47764;SDS011;33529;49.242;8.670;2022-08-19T02:31:22;20.92;;;18.92;;
47764;SDS011;33529;49.242;8.670;2022-08-19T02:33:51;22.52;;;19.42;;
47764;SDS011;33529;49.242;8.670;2022-08-19T02:36:22;21.15;;;18.98;;
47764;SDS011;33529;49.242;8.670;2022-08-19T02:38:50;19.67;;;17.77;;
47764;SDS011;33529;49.242;8.670;2022-08-19T02:41:22;23.23;;;20.85;;
47764;SDS011;33529;49.242;8.670;2022-08-19T02:43:53;23.92;;;21.52;;
47764;SDS011;33529;49.242;8.670;2022-08-19T02:46:40;23.23;;;20.77;;
47764;SDS011;33529;49.242;8.670;2022-08-19T02:49:07;24.88;;;22.35;;
47764;SDS011;33529;49.242;8.670;2022-08-19T02:51:37;22.98;;;20.77;;
47764;SDS011;33529;49.242;8.670;2022-08-19T02:54:07;24.40;;;21.88;;
47764;SDS011;33529;49.242;8.670;2022-08-19T02:56:35;25.73;;;23.15;;
47764;SDS011;33529;49.242;8.670;2022-08-19T02:59:04;26.23;;;23.63;;
47764;SDS011;33529;49.242;8.670;2022-08-19T03:01:37;27.25;;;24.33;;
47764;SDS011;33529;49.242;8.670;2022-08-19T03:04:07;26.70;;;23.88;;
47764;SDS011;33529;49.242;8.670;2022-08-19T03:06:36;26.65;;;23.95;;
47764;SDS011;33529;49.242;8.670;2022-08-19T03:09:04;24.60;;;22.17;;
47764;SDS011;33529;49.242;8.670;2022-08-19T03:11:32;25.15;;;22.60;;
47764;SDS011;33529;49.242;8.670;2022-08-19T03:14:00;25.88;;;23.30;;
47764;SDS011;33529;49.242;8.670;2022-08-19T03:16:30;28.35;;;23.73;;
47764;SDS011;33529;49.242;8.670;2022-08-19T03:18:59;24.58;;;22.10;;
47764;SDS011;33529;49.242;8.670;2022-08-19T03:21:28;24.52;;;21.90;;
47764;SDS011;33529;49.242;8.670;2022-08-19T03:23:57;25.25;;;22.35;;
47764;SDS011;33529;49.242;8.670;2022-08-19T03:26:25;26.30;;;23.55;;
47764;SDS011;33529;49.242;8.670;2022-08-19T03:28:52;25.20;;;22.63;;
47764;SDS011;33529;49.242;8.670;2022-08-19T03:31:24;23.60;;;21.20;;
47764;SDS011;33529;49.242;8.670;2022-08-19T03:34:15;23.92;;;21.52;;
47764;SDS011;33529;49.242;8.670;2022-08-19T03:36:45;22.77;;;20.52;;
47764;SDS011;33529;49.242;8.670;2022-08-19T03:39:15;24.08;;;21.60;;
47764;SDS011;33529;49.242;8.670;2022-08-19T03:41:43;25.83;;;23.00;;
47764;SDS011;33529;49.242;8.670;2022-08-19T03:44:14;28.35;;;25.48;;
47764;SDS011;33529;49.242;8.670;2022-08-19T03:46:49;27.13;;;24.33;;
47764;SDS011;33529;49.242;8.670;2022-08-19T03:49:18;28.40;;;24.45;;
47764;SDS011;33529;49.242;8.670;2022-08-19T03:51:46;26.73;;;24.02;;
47764;SDS011;33529;49.242;8.670;2022-08-19T03:54:16;27.00;;;24.17;;
47764;SDS011;33529;49.242;8.670;2022-08-19T03:56:45;25.88;;;23.33;;
47764;SDS011;33529;49.242;8.670;2022-08-19T03:59:16;25.65;;;22.95;;
47764;SDS011;33529;49.242;8.670;2022-08-19T04:01:46;28.65;;;25.65;;
47764;SDS011;33529;49.242;8.670;2022-08-19T04:04:13;26.48;;;23.95;;
47764;SDS011;33529;49.242;8.670;2022-08-19T04:06:40;26.27;;;23.45;;
47764;SDS011;33529;49.242;8.670;2022-08-19T04:09:08;30.23;;;27.17;;
47764;SDS011;33529;49.242;8.670;2022-08-19T04:11:37;28.92;;;26.13;;
47764;SDS011;33529;49.242;8.670;2022-08-19T04:14:18;29.02;;;25.88;;
47764;SDS011;33529;49.242;8.670;2022-08-19T04:16:48;30.02;;;26.92;;
47764;SDS011;33529;49.242;8.670;2022-08-19T04:19:15;29.85;;;26.70;;
47764;SDS011;33529;49.242;8.670;2022-08-19T04:21:45;27.05;;;24.45;;
47764;SDS011;33529;49.242;8.670;2022-08-19T04:24:14;27.80;;;24.92;;
47764;SDS011;33529;49.242;8.670;2022-08-19T04:26:41;26.73;;;24.15;;
47764;SDS011;33529;49.242;8.670;2022-08-19T04:29:10;26.92;;;24.02;;
47764;SDS011;33529;49.242;8.670;2022-08-19T04:31:39;26.42;;;23.73;;
47764;SDS011;33529;49.242;8.670;2022-08-19T04:34:08;28.33;;;25.33;;
47764;SDS011;33529;49.242;8.670;2022-08-19T04:36:38;28.58;;;25.70;;
47764;SDS011;33529;49.242;8.670;2022-08-19T04:39:08;25.95;;;23.38;;
47764;SDS011;33529;49.242;8.670;2022-08-19T04:41:36;28.58;;;25.58;;
47764;SDS011;33529;49.242;8.670;2022-08-19T04:44:22;26.63;;;23.80;;
47764;SDS011;33529;49.242;8.670;2022-08-19T04:46:49;26.65;;;23.98;;
47764;SDS011;33529;49.242;8.670;2022-08-19T04:49:20;26.02;;;23.38;;
47764;SDS011;33529;49.242;8.670;2022-08-19T04:51:49;27.20;;;24.48;;
47764;SDS011;33529;49.242;8.670;2022-08-19T04:54:21;28.80;;;26.10;;
47764;SDS011;33529;49.242;8.670;2022-08-19T04:57:04;26.17;;;23.58;;
47764;SDS011;33529;49.242;8.670;2022-08-19T04:59:34;25.50;;;22.92;;
47764;SDS011;33529;49.242;8.670;2022-08-19T05:02:02;25.52;;;22.92;;
47764;SDS011;33529;49.242;8.670;2022-08-19T05:04:30;24.45;;;21.83;;
47764;SDS011;33529;49.242;8.670;2022-08-19T05:06:59;25.27;;;22.60;;
47764;SDS011;33529;49.242;8.670;2022-08-19T05:09:28;24.52;;;22.05;;
47764;SDS011;33529;49.242;8.670;2022-08-19T05:12:15;25.05;;;22.30;;
47764;SDS011;33529;49.242;8.670;2022-08-19T05:14:43;25.55;;;23.02;;
47764;SDS011;33529;49.242;8.670;2022-08-19T05:17:11;25.30;;;22.85;;
47764;SDS011;33529;49.242;8.670;2022-08-19T05:19:53;25.50;;;22.85;;
47764;SDS011;33529;49.242;8.670;2022-08-19T05:22:39;23.65;;;21.27;;
47764;SDS011;33529;49.242;8.670;2022-08-19T05:25:08;26.50;;;23.88;;
47764;SDS011;33529;49.242;8.670;2022-08-19T05:27:39;25.15;;;22.63;;
47764;SDS011;33529;49.242;8.670;2022-08-19T05:30:07;27.27;;;24.48;;
47764;SDS011;33529;49.242;8.670;2022-08-19T05:32:35;26.80;;;23.92;;
47764;SDS011;33529;49.242;8.670;2022-08-19T05:35:02;25.92;;;22.75;;
47764;SDS011;33529;49.242;8.670;2022-08-19T05:37:30;26.85;;;23.60;;
47764;SDS011;33529;49.242;8.670;2022-08-19T05:39:57;25.85;;;23.17;;
47764;SDS011;33529;49.242;8.670;2022-08-19T05:42:24;24.13;;;21.77;;
47764;SDS011;33529;49.242;8.670;2022-08-19T05:44:51;24.42;;;21.98;;
47764;SDS011;33529;49.242;8.670;2022-08-19T05:47:18;25.30;;;22.63;;
47764;SDS011;33529;49.242;8.670;2022-08-19T05:49:46;23.13;;;20.92;;
47764;SDS011;33529;49.242;8.670;2022-08-19T05:52:15;23.35;;;20.88;;
47764;SDS011;33529;49.242;8.670;2022-08-19T05:54:44;25.27;;;21.70;;
47764;SDS011;33529;49.242;8.670;2022-08-19T05:57:17;23.50;;;21.15;;
47764;SDS011;33529;49.242;8.670;2022-08-19T05:59:45;25.45;;;22.92;;
47764;SDS011;33529;49.242;8.670;2022-08-19T06:02:18;23.25;;;20.95;;
47764;SDS011;33529;49.242;8.670;2022-08-19T06:04:45;23.70;;;20.77;;
47764;SDS011;33529;49.242;8.670;2022-08-19T06:07:12;23.45;;;20.92;;
47764;SDS011;33529;49.242;8.670;2022-08-19T06:09:39;24.65;;;22.02;;
47764;SDS011;33529;49.242;8.670;2022-08-19T06:12:08;23.95;;;21.65;;
47764;SDS011;33529;49.242;8.670;2022-08-19T06:14:36;23.85;;;21.55;;
47764;SDS011;33529;49.242;8.670;2022-08-19T06:17:07;23.52;;;21.23;;
47764;SDS011;33529;49.242;8.670;2022-08-19T06:19:34;24.35;;;20.83;;
47764;SDS011;33529;49.242;8.670;2022-08-19T06:22:06;23.00;;;20.70;;
47764;SDS011;33529;49.242;8.670;2022-08-19T06:24:33;21.70;;;19.50;;
47764;SDS011;33529;49.242;8.670;2022-08-19T06:27:01;22.17;;;20.00;;
47764;SDS011;33529;49.242;8.670;2022-08-19T06:29:32;24.15;;;20.67;;
47764;SDS011;33529;49.242;8.670;2022-08-19T06:32:00;23.00;;;20.52;;
47764;SDS011;33529;49.242;8.670;2022-08-19T06:34:30;22.48;;;20.10;;
47764;SDS011;33529;49.242;8.670;2022-08-19T06:36:59;20.02;;;18.10;;
47764;SDS011;33529;49.242;8.670;2022-08-19T06:39:31;23.83;;;20.70;;
47764;SDS011;33529;49.242;8.670;2022-08-19T06:42:02;23.77;;;20.65;;
47764;SDS011;33529;49.242;8.670;2022-08-19T06:44:34;22.02;;;19.75;;
47764;SDS011;33529;49.242;8.670;2022-08-19T06:47:10;38.85;;;24.00;;
47764;SDS011;33529;49.242;8.670;2022-08-19T06:49:40;35.10;;;23.20;;
47764;SDS011;33529;49.242;8.670;2022-08-19T06:52:07;32.85;;;22.20;;
47764;SDS011;33529;49.242;8.670;2022-08-19T06:54:40;27.35;;;19.65;;
47764;SDS011;33529;49.242;8.670;2022-08-19T06:57:21;25.05;;;20.98;;
47764;SDS011;33529;49.242;8.670;2022-08-19T06:59:49;22.08;;;19.70;;
47764;SDS011;33529;49.242;8.670;2022-08-19T07:02:15;19.75;;;17.75;;
47764;SDS011;33529;49.242;8.670;2022-08-19T07:04:43;21.55;;;18.52;;
47764;SDS011;33529;49.242;8.670;2022-08-19T07:07:11;21.70;;;17.83;;
47764;SDS011;33529;49.242;8.670;2022-08-19T07:09:47;19.98;;;17.75;;
47764;SDS011;33529;49.242;8.670;2022-08-19T07:12:25;22.00;;;16.98;;
47764;SDS011;33529;49.242;8.670;2022-08-19T07:15:01;17.58;;;15.80;;
47764;SDS011;33529;49.242;8.670;2022-08-19T07:17:30;18.42;;;16.25;;
47764;SDS011;33529;49.242;8.670;2022-08-19T07:20:00;21.02;;;16.83;;
47764;SDS011;33529;49.242;8.670;2022-08-19T07:22:32;18.48;;;16.55;;
47764;SDS011;33529;49.242;8.670;2022-08-19T07:25:00;19.23;;;17.23;;
47764;SDS011;33529;49.242;8.670;2022-08-19T07:27:28;29.15;;;18.55;;
47764;SDS011;33529;49.242;8.670;2022-08-19T07:29:58;21.15;;;17.23;;
47764;SDS011;33529;49.242;8.670;2022-08-19T07:32:25;23.90;;;15.95;;
47764;SDS011;33529;49.242;8.670;2022-08-19T07:34:53;18.95;;;15.48;;
47764;SDS011;33529;49.242;8.670;2022-08-19T07:37:21;16.15;;;14.38;;
47764;SDS011;33529;49.242;8.670;2022-08-19T07:39:49;17.30;;;15.65;;
47764;SDS011;33529;49.242;8.670;2022-08-19T07:42:16;20.67;;;16.10;;
47764;SDS011;33529;49.242;8.670;2022-08-19T07:44:43;20.15;;;15.18;;
47764;SDS011;33529;49.242;8.670;2022-08-19T07:47:16;15.98;;;13.93;;
47764;SDS011;33529;49.242;8.670;2022-08-19T07:50:04;14.90;;;13.40;;
47764;SDS011;33529;49.242;8.670;2022-08-19T07:52:34;16.40;;;14.15;;
47764;SDS011;33529;49.242;8.670;2022-08-19T07:55:05;17.35;;;14.10;;
47764;SDS011;33529;49.242;8.670;2022-08-19T07:57:53;16.40;;;14.63;;
47764;SDS011;33529;49.242;8.670;2022-08-19T08:00:20;18.15;;;14.57;;
47764;SDS011;33529;49.242;8.670;2022-08-19T08:02:50;19.70;;;13.68;;
47764;SDS011;33529;49.242;8.670;2022-08-19T08:05:21;16.50;;;14.50;;
47764;SDS011;33529;49.242;8.670;2022-08-19T08:08:10;14.27;;;12.73;;
47764;SDS011;33529;49.242;8.670;2022-08-19T08:10:57;16.13;;;13.20;;
47764;SDS011;33529;49.242;8.670;2022-08-19T08:13:24;14.52;;;13.00;;
47764;SDS011;33529;49.242;8.670;2022-08-19T08:15:53;12.45;;;11.15;;
47764;SDS011;33529;49.242;8.670;2022-08-19T08:18:21;15.38;;;11.93;;
47764;SDS011;33529;49.242;8.670;2022-08-19T08:20:53;16.48;;;12.15;;
47764;SDS011;33529;49.242;8.670;2022-08-19T08:23:21;13.05;;;10.40;;
47764;SDS011;33529;49.242;8.670;2022-08-19T08:25:48;13.15;;;11.70;;
47764;SDS011;33529;49.242;8.670;2022-08-19T08:28:16;15.50;;;10.52;;
47764;SDS011;33529;49.242;8.670;2022-08-19T08:30:44;12.93;;;10.98;;
47764;SDS011;33529;49.242;8.670;2022-08-19T08:33:17;11.47;;;10.37;;
47764;SDS011;33529;49.242;8.670;2022-08-19T08:35:59;11.48;;;10.38;;
47764;SDS011;33529;49.242;8.670;2022-08-19T08:38:38;12.57;;;11.30;;
47764;SDS011;33529;49.242;8.670;2022-08-19T08:43:46;12.80;;;10.40;;
47764;SDS011;33529;49.242;8.670;2022-08-19T08:49:02;12.05;;;10.77;;
47764;SDS011;33529;49.242;8.670;2022-08-19T08:51:42;11.82;;;10.45;;
47764;SDS011;33529;49.242;8.670;2022-08-19T08:54:24;13.82;;;9.95;;
47764;SDS011;33529;49.242;8.670;2022-08-19T08:56:53;10.88;;;8.95;;
47764;SDS011;33529;49.242;8.670;2022-08-19T08:59:31;11.27;;;10.05;;
47764;SDS011;33529;49.242;8.670;2022-08-19T09:02:03;10.13;;;9.02;;
47764;SDS011;33529;49.242;8.670;2022-08-19T09:04:31;12.73;;;9.57;;
47764;SDS011;33529;49.242;8.670;2022-08-19T09:07:07;12.25;;;9.73;;
47764;SDS011;33529;49.242;8.670;2022-08-19T09:10:02;9.77;;;8.02;;
47764;SDS011;33529;49.242;8.670;2022-08-19T09:12:57;8.55;;;7.55;;
47764;SDS011;33529;49.242;8.670;2022-08-19T09:15:51;11.20;;;7.80;;
47764;SDS011;33529;49.242;8.670;2022-08-19T09:18:41;9.05;;;7.47;;
47764;SDS011;33529;49.242;8.670;2022-08-19T09:21:14;9.27;;;7.97;;
47764;SDS011;33529;49.242;8.670;2022-08-19T09:23:42;9.38;;;8.23;;
47764;SDS011;33529;49.242;8.670;2022-08-19T09:26:10;11.15;;;7.68;;
47764;SDS011;33529;49.242;8.670;2022-08-19T09:28:42;8.73;;;7.90;;
47764;SDS011;33529;49.242;8.670;2022-08-19T09:31:15;8.68;;;7.78;;
47764;SDS011;33529;49.242;8.670;2022-08-19T09:33:43;7.38;;;6.60;;
47764;SDS011;33529;49.242;8.670;2022-08-19T09:36:11;9.55;;;7.40;;
47764;SDS011;33529;49.242;8.670;2022-08-19T09:38:49;9.32;;;6.68;;
47764;SDS011;33529;49.242;8.670;2022-08-19T09:41:18;8.93;;;6.60;;
47764;SDS011;33529;49.242;8.670;2022-08-19T09:43:49;8.18;;;6.30;;
47764;SDS011;33529;49.242;8.670;2022-08-19T09:46:19;7.45;;;6.00;;
47764;SDS011;33529;49.242;8.670;2022-08-19T09:48:50;8.88;;;6.32;;
47764;SDS011;33529;49.242;8.670;2022-08-19T09:51:22;7.97;;;6.50;;
47764;SDS011;33529;49.242;8.670;2022-08-19T09:53:51;9.60;;;6.10;;
47764;SDS011;33529;49.242;8.670;2022-08-19T09:56:21;9.40;;;6.60;;
47764;SDS011;33529;49.242;8.670;2022-08-19T09:58:49;9.32;;;6.35;;
47764;SDS011;33529;49.242;8.670;2022-08-19T10:01:20;8.98;;;6.60;;
47764;SDS011;33529;49.242;8.670;2022-08-19T10:03:49;8.70;;;6.97;;
47764;SDS011;33529;49.242;8.670;2022-08-19T10:06:20;8.18;;;6.20;;
47764;SDS011;33529;49.242;8.670;2022-08-19T10:09:09;6.57;;;5.80;;
47764;SDS011;33529;49.242;8.670;2022-08-19T10:11:39;11.45;;;6.45;;
47764;SDS011;33529;49.242;8.670;2022-08-19T10:14:18;11.25;;;5.72;;
47764;SDS011;33529;49.242;8.670;2022-08-19T10:16:48;6.43;;;5.22;;
47764;SDS011;33529;49.242;8.670;2022-08-19T10:19:15;6.65;;;5.55;;
47764;SDS011;33529;49.242;8.670;2022-08-19T10:21:51;8.18;;;5.90;;
47764;SDS011;33529;49.242;8.670;2022-08-19T10:24:25;6.95;;;6.30;;
47764;SDS011;33529;49.242;8.670;2022-08-19T10:26:54;8.15;;;5.38;;
47764;SDS011;33529;49.242;8.670;2022-08-19T10:29:25;7.35;;;5.43;;
47764;SDS011;33529;49.242;8.670;2022-08-19T10:31:58;6.68;;;5.45;;
47764;SDS011;33529;49.242;8.670;2022-08-19T10:34:28;6.30;;;5.57;;
47764;SDS011;33529;49.242;8.670;2022-08-19T10:36:56;6.80;;;6.10;;
47764;SDS011;33529;49.242;8.670;2022-08-19T10:39:27;10.32;;;6.60;;
47764;SDS011;33529;49.242;8.670;2022-08-19T10:42:08;8.25;;;6.03;;
47764;SDS011;33529;49.242;8.670;2022-08-19T10:44:37;6.50;;;5.20;;
47764;SDS011;33529;49.242;8.670;2022-08-19T10:47:03;9.32;;;6.68;;
47764;SDS011;33529;49.242;8.670;2022-08-19T10:49:50;9.50;;;5.78;;
47764;SDS011;33529;49.242;8.670;2022-08-19T10:52:37;6.97;;;5.45;;
47764;SDS011;33529;49.242;8.670;2022-08-19T10:55:16;13.13;;;6.97;;
47764;SDS011;33529;49.242;8.670;2022-08-19T10:58:10;7.68;;;6.10;;
47764;SDS011;33529;49.242;8.670;2022-08-19T11:00:38;14.43;;;6.78;;
47764;SDS011;33529;49.242;8.670;2022-08-19T11:03:06;9.52;;;6.60;;
47764;SDS011;33529;49.242;8.670;2022-08-19T11:05:34;7.72;;;6.95;;
47764;SDS011;33529;49.242;8.670;2022-08-19T11:10:48;7.05;;;6.35;;
47764;SDS011;33529;49.242;8.670;2022-08-19T11:13:16;6.97;;;6.20;;
47764;SDS011;33529;49.242;8.670;2022-08-19T11:15:42;8.82;;;6.40;;
47764;SDS011;33529;49.242;8.670;2022-08-19T11:18:10;12.60;;;6.28;;
47764;SDS011;33529;49.242;8.670;2022-08-19T11:20:38;8.23;;;5.85;;
47764;SDS011;33529;49.242;8.670;2022-08-19T11:23:05;8.27;;;6.32;;
47764;SDS011;33529;49.242;8.670;2022-08-19T11:25:32;6.82;;;6.07;;
47764;SDS011;33529;49.242;8.670;2022-08-19T11:28:01;9.10;;;6.07;;
47764;SDS011;33529;49.242;8.670;2022-08-19T11:30:27;7.18;;;6.47;;
47764;SDS011;33529;49.242;8.670;2022-08-19T11:32:54;8.80;;;6.72;;
47764;SDS011;33529;49.242;8.670;2022-08-19T11:35:21;7.70;;;6.90;;
47764;SDS011;33529;49.242;8.670;2022-08-19T11:37:49;7.55;;;6.85;;
47764;SDS011;33529;49.242;8.670;2022-08-19T11:40:16;8.57;;;7.72;;
47764;SDS011;33529;49.242;8.670;2022-08-19T11:42:43;8.50;;;7.70;;
47764;SDS011;33529;49.242;8.670;2022-08-19T11:45:23;9.40;;;8.30;;
47764;SDS011;33529;49.242;8.670;2022-08-19T11:47:51;9.60;;;8.13;;
47764;SDS011;33529;49.242;8.670;2022-08-19T11:50:18;13.32;;;9.15;;
47764;SDS011;33529;49.242;8.670;2022-08-19T11:52:46;10.27;;;8.27;;
47764;SDS011;33529;49.242;8.670;2022-08-19T11:55:13;10.73;;;8.27;;
47764;SDS011;33529;49.242;8.670;2022-08-19T11:57:40;9.00;;;7.43;;
47764;SDS011;33529;49.242;8.670;2022-08-19T12:00:09;9.35;;;8.07;;
47764;SDS011;33529;49.242;8.670;2022-08-19T12:02:38;13.07;;;9.23;;
47764;SDS011;33529;49.242;8.670;2022-08-19T12:05:06;9.30;;;8.27;;
47764;SDS011;33529;49.242;8.670;2022-08-19T12:07:38;11.18;;;8.38;;
47764;SDS011;33529;49.242;8.670;2022-08-19T12:10:10;14.75;;;8.10;;
47764;SDS011;33529;49.242;8.670;2022-08-19T12:12:37;11.07;;;7.32;;
47764;SDS011;33529;49.242;8.670;2022-08-19T12:15:09;9.52;;;7.57;;
47764;SDS011;33529;49.242;8.670;2022-08-19T12:17:37;8.43;;;6.93;;
47764;SDS011;33529;49.242;8.670;2022-08-19T12:20:04;8.82;;;7.75;;
47764;SDS011;33529;49.242;8.670;2022-08-19T12:22:32;8.88;;;7.97;;
47764;SDS011;33529;49.242;8.670;2022-08-19T12:25:01;8.32;;;7.53;;
47764;SDS011;33529;49.242;8.670;2022-08-19T12:27:27;7.65;;;6.78;;
47764;SDS011;33529;49.242;8.670;2022-08-19T12:30:07;8.10;;;7.40;;
47764;SDS011;33529;49.242;8.670;2022-08-19T12:32:36;8.18;;;7.13;;
47764;SDS011;33529;49.242;8.670;2022-08-19T12:35:03;7.93;;;7.05;;
47764;SDS011;33529;49.242;8.670;2022-08-19T12:37:31;7.47;;;6.35;;
47764;SDS011;33529;49.242;8.670;2022-08-19T12:39:58;6.70;;;5.45;;
47764;SDS011;33529;49.242;8.670;2022-08-19T12:42:25;7.43;;;6.40;;
47764;SDS011;33529;49.242;8.670;2022-08-19T12:44:52;7.68;;;6.90;;
47764;SDS011;33529;49.242;8.670;2022-08-19T12:47:19;16.35;;;7.05;;
47764;SDS011;33529;49.242;8.670;2022-08-19T12:49:47;7.47;;;6.32;;
47764;SDS011;33529;49.242;8.670;2022-08-19T12:52:21;6.65;;;6.05;;
47764;SDS011;33529;49.242;8.670;2022-08-19T12:54:49;14.85;;;6.97;;
47764;SDS011;33529;49.242;8.670;2022-08-19T12:57:20;14.68;;;8.45;;
47764;SDS011;33529;49.242;8.670;2022-08-19T12:59:59;11.88;;;7.47;;
47764;SDS011;33529;49.242;8.670;2022-08-19T13:02:30;8.18;;;7.38;;
47764;SDS011;33529;49.242;8.670;2022-08-19T13:05:04;14.70;;;6.65;;
47764;SDS011;33529;49.242;8.670;2022-08-19T13:07:34;7.47;;;6.72;;
47764;SDS011;33529;49.242;8.670;2022-08-19T13:10:01;7.10;;;6.40;;
47764;SDS011;33529;49.242;8.670;2022-08-19T13:12:29;7.00;;;5.82;;
47764;SDS011;33529;49.242;8.670;2022-08-19T13:14:56;7.63;;;6.22;;
47764;SDS011;33529;49.242;8.670;2022-08-19T13:17:23;5.93;;;5.32;;
47764;SDS011;33529;49.242;8.670;2022-08-19T13:19:50;9.13;;;5.65;;
47764;SDS011;33529;49.242;8.670;2022-08-19T13:22:17;8.38;;;5.93;;
47764;SDS011;33529;49.242;8.670;2022-08-19T13:24:44;7.88;;;6.15;;
47764;SDS011;33529;49.242;8.670;2022-08-19T13:27:12;9.98;;;6.22;;
47764;SDS011;33529;49.242;8.670;2022-08-19T13:29:42;15.00;;;5.45;;
47764;SDS011;33529;49.242;8.670;2022-08-19T13:32:28;12.60;;;5.05;;
47764;SDS011;33529;49.242;8.670;2022-08-19T13:35:14;6.28;;;5.38;;
47764;SDS011;33529;49.242;8.670;2022-08-19T13:37:42;7.60;;;5.30;;
47764;SDS011;33529;49.242;8.670;2022-08-19T13:40:13;6.75;;;5.07;;
47764;SDS011;33529;49.242;8.670;2022-08-19T13:42:45;11.75;;;5.07;;
47764;SDS011;33529;49.242;8.670;2022-08-19T13:45:14;7.95;;;4.82;;
47764;SDS011;33529;49.242;8.670;2022-08-19T13:47:52;4.72;;;4.15;;
47764;SDS011;33529;49.242;8.670;2022-08-19T13:50:28;5.55;;;3.88;;
47764;SDS011;33529;49.242;8.670;2022-08-19T13:52:58;4.60;;;3.72;;
47764;SDS011;33529;49.242;8.670;2022-08-19T13:55:25;5.95;;;3.90;;
47764;SDS011;33529;49.242;8.670;2022-08-19T13:57:53;5.93;;;4.35;;
47764;SDS011;33529;49.242;8.670;2022-08-19T14:00:22;6.68;;;4.13;;
47764;SDS011;33529;49.242;8.670;2022-08-19T14:02:53;6.22;;;4.22;;
47764;SDS011;33529;49.242;8.670;2022-08-19T14:05:23;5.15;;;3.63;;
47764;SDS011;33529;49.242;8.670;2022-08-19T14:07:52;5.25;;;4.43;;
47764;SDS011;33529;49.242;8.670;2022-08-19T14:10:20;5.97;;;3.97;;
47764;SDS011;33529;49.242;8.670;2022-08-19T14:12:48;5.70;;;4.10;;
47764;SDS011;33529;49.242;8.670;2022-08-19T14:15:15;5.18;;;4.13;;
47764;SDS011;33529;49.242;8.670;2022-08-19T14:17:43;5.78;;;4.20;;
47764;SDS011;33529;49.242;8.670;2022-08-19T14:20:11;6.60;;;4.00;;
47764;SDS011;33529;49.242;8.670;2022-08-19T14:22:44;4.88;;;4.38;;
47764;SDS011;33529;49.242;8.670;2022-08-19T14:25:14;5.25;;;4.05;;
47764;SDS011;33529;49.242;8.670;2022-08-19T14:27:47;5.60;;;4.28;;
47764;SDS011;33529;49.242;8.670;2022-08-19T14:30:17;4.03;;;3.63;;
47764;SDS011;33529;49.242;8.670;2022-08-19T14:32:47;6.90;;;3.67;;
47764;SDS011;33529;49.242;8.670;2022-08-19T14:35:14;8.07;;;4.70;;
47764;SDS011;33529;49.242;8.670;2022-08-19T14:37:42;7.18;;;3.95;;
47764;SDS011;33529;49.242;8.670;2022-08-19T14:40:22;5.03;;;3.95;;
47764;SDS011;33529;49.242;8.670;2022-08-19T14:42:59;7.63;;;4.25;;
47764;SDS011;33529;49.242;8.670;2022-08-19T14:45:34;5.53;;;4.25;;
47764;SDS011;33529;49.242;8.670;2022-08-19T14:48:03;6.85;;;4.10;;
47764;SDS011;33529;49.242;8.670;2022-08-19T14:50:31;5.50;;;4.10;;
47764;SDS011;33529;49.242;8.670;2022-08-19T14:52:59;4.70;;;4.13;;
47764;SDS011;33529;49.242;8.670;2022-08-19T14:55:40;5.80;;;4.18;;
47764;SDS011;33529;49.242;8.670;2022-08-19T14:58:11;5.43;;;4.47;;
47764;SDS011;33529;49.242;8.670;2022-08-19T15:00:55;6.75;;;5.05;;